Time;durP1;ratioP1;P1;durP2;ratioP2;P2;SDS_P1;SDS_P2;PMS_P1;PMS_P2;Temp;Humidity;BMP_temperature;BMP_pressure;BME280_temperature;BME280_humidity;BME280_pressure;Samples;Min_cycle;Max_cycle;Signal;HPM_P1;HPM_P2
2022/04/09 00:01:41;;;;;;;1.15;1.10;;;;;;;;;;4962361;28;20039;-72
2022/04/09 00:04:09;;;;;;;1.15;1.00;;;;;;;;;;4961305;28;20053;-71
2022/04/09 00:06:36;;;;;;;1.00;1.00;;;;;;;;;;4962914;28;20447;-73
2022/04/09 00:09:03;;;;;;;0.90;0.90;;;;;;;;;;4942460;28;20043;-74
2022/04/09 00:11:31;;;;;;;1.45;1.30;;;;;;;;;;4960718;28;20523;-73
2022/04/09 00:13:58;;;;;;;1.42;1.33;;;;;;;;;;4962404;28;20166;-75
2022/04/09 00:16:25;;;;;;;1.63;1.20;;;;;;;;;;4960177;28;20069;-73
2022/04/09 00:18:53;;;;;;;1.40;1.30;;;;;;;;;;4959349;28;20043;-76
2022/04/09 00:21:20;;;;;;;2.47;1.70;;;;;;;;;;4942373;28;20126;-72
2022/04/09 00:23:48;;;;;;;1.50;1.40;;;;;;;;;;4963180;28;20066;-73
2022/04/09 00:26:15;;;;;;;1.88;1.50;;;;;;;;;;4966015;28;20085;-73
2022/04/09 00:28:43;;;;;;;1.50;1.40;;;;;;;;;;4959956;28;20208;-74
2022/04/09 00:31:11;;;;;;;1.50;1.40;;;;;;;;;;4941295;28;20046;-72
2022/04/09 00:33:39;;;;;;;4.70;1.75;;;;;;;;;;4956678;28;20042;-73
2022/04/09 00:36:07;;;;;;;1.85;1.75;;;;;;;;;;4960320;28;20047;-73
2022/04/09 00:38:34;;;;;;;1.60;1.48;;;;;;;;;;4960207;28;20035;-75
2022/04/09 00:41:01;;;;;;;1.85;1.70;;;;;;;;;;4944014;28;20507;-74
2022/04/09 00:43:29;;;;;;;2.58;1.75;;;;;;;;;;4983770;23;20069;-77
2022/04/09 00:45:56;;;;;;;1.65;1.55;;;;;;;;;;4959309;28;20069;-79
2022/04/09 00:48:24;;;;;;;1.60;1.50;;;;;;;;;;4981053;28;20055;-76
2022/04/09 00:50:54;;;;;;;2.63;1.90;;;;;;;;;;4955207;28;20511;-76
2022/04/09 00:53:22;;;;;;;2.20;1.60;;;;;;;;;;4975609;28;20601;-76
2022/04/09 00:58:37;;;;;;;2.83;2.28;;;;;;;;;;4979788;28;20050;-78
2022/04/09 01:01:05;;;;;;;2.20;1.45;;;;;;;;;;4961307;28;20140;-79
2022/04/09 01:03:34;;;;;;;1.85;1.75;;;;;;;;;;4948727;28;20046;-76
2022/04/09 01:06:02;;;;;;;1.85;1.50;;;;;;;;;;4975145;28;20542;-76
2022/04/09 01:08:29;;;;;;;1.52;1.38;;;;;;;;;;4973337;28;20462;-78
2022/04/09 01:10:57;;;;;;;1.58;1.40;;;;;;;;;;4942703;28;20061;-78
2022/04/09 01:13:24;;;;;;;1.90;1.80;;;;;;;;;;4962695;28;20542;-79
2022/04/09 01:15:52;;;;;;;2.65;1.40;;;;;;;;;;4972660;28;20042;-78
2022/04/09 01:18:20;;;;;;;1.50;1.40;;;;;;;;;;4945848;28;20077;-76
2022/04/09 01:20:59;;;;;;;1.80;1.60;;;;;;;;;;4969391;28;20171;-79
2022/04/09 01:23:27;;;;;;;1.80;1.33;;;;;;;;;;4960062;28;20297;-77
2022/04/09 01:25:56;;;;;;;1.58;1.48;;;;;;;;;;4960523;28;20043;-76
2022/04/09 01:28:25;;;;;;;1.70;1.42;;;;;;;;;;4971563;28;20042;-77
2022/04/09 01:30:53;;;;;;;2.70;1.23;;;;;;;;;;4953993;28;20391;-77
2022/04/09 01:33:22;;;;;;;1.58;1.27;;;;;;;;;;4959373;28;20101;-77
2022/04/09 01:35:49;;;;;;;1.40;1.30;;;;;;;;;;4956439;28;20034;-79
2022/04/09 01:38:19;;;;;;;2.20;2.10;;;;;;;;;;4958181;28;20460;-76
2022/04/09 01:40:47;;;;;;;2.22;1.83;;;;;;;;;;4957702;28;20062;-76
2022/04/09 01:43:15;;;;;;;2.78;2.05;;;;;;;;;;4955120;28;20082;-77
2022/04/09 01:45:42;;;;;;;3.13;1.80;;;;;;;;;;4972440;28;20783;-80
2022/04/09 01:48:18;;;;;;;2.35;1.38;;;;;;;;;;4974548;28;20057;-78
2022/04/09 01:50:46;;;;;;;3.50;1.50;;;;;;;;;;4974170;28;20747;-78
2022/04/09 01:53:14;;;;;;;1.10;1.00;;;;;;;;;;4971776;28;20049;-76
2022/04/09 01:55:43;;;;;;;1.40;1.30;;;;;;;;;;4976049;28;20823;-77
2022/04/09 01:58:11;;;;;;;1.20;1.10;;;;;;;;;;4972589;28;20141;-77
2022/04/09 02:00:42;;;;;;;0.70;0.70;;;;;;;;;;4976908;28;20554;-78
2022/04/09 02:03:09;;;;;;;0.80;0.45;;;;;;;;;;4970476;28;20047;-77
2022/04/09 02:05:36;;;;;;;0.60;0.60;;;;;;;;;;4979538;28;20485;-76
2022/04/09 02:08:04;;;;;;;0.50;0.50;;;;;;;;;;4945239;28;20082;-78
2022/04/09 02:10:34;;;;;;;0.60;0.60;;;;;;;;;;4980764;28;20092;-76
2022/04/09 02:13:18;;;;;;;0.50;0.40;;;;;;;;;;4955883;28;20055;-77
2022/04/09 02:15:46;;;;;;;0.80;0.40;;;;;;;;;;4949433;28;20058;-79
2022/04/09 02:18:14;;;;;;;0.82;0.20;;;;;;;;;;4974292;28;20048;-79
2022/04/09 02:20:42;;;;;;;1.35;0.20;;;;;;;;;;4975273;28;20656;-81
2022/04/09 02:23:09;;;;;;;0.57;0.30;;;;;;;;;;4956184;28;20120;-77
2022/04/09 02:25:37;;;;;;;0.57;0.32;;;;;;;;;;4971406;28;20057;-76
2022/04/09 02:28:06;;;;;;;0.85;0.30;;;;;;;;;;4978472;28;20054;-79
2022/04/09 02:30:34;;;;;;;0.38;0.38;;;;;;;;;;5006674;28;20122;-77
2022/04/09 02:33:04;;;;;;;0.88;0.30;;;;;;;;;;4975182;28;20333;-76
2022/04/09 02:35:37;;;;;;;0.40;0.40;;;;;;;;;;4991055;28;20163;-81
2022/04/09 02:38:08;;;;;;;0.85;0.40;;;;;;;;;;4972034;28;20272;-78
2022/04/09 02:40:36;;;;;;;0.38;0.38;;;;;;;;;;4959955;28;20056;-78
2022/04/09 02:43:03;;;;;;;0.40;0.38;;;;;;;;;;4993490;28;20104;-79
2022/04/09 02:45:31;;;;;;;0.40;0.40;;;;;;;;;;4979878;28;20058;-78
2022/04/09 02:47:59;;;;;;;0.40;0.40;;;;;;;;;;4996503;28;20046;-79
2022/04/09 02:50:31;;;;;;;0.40;0.40;;;;;;;;;;4981977;28;20046;-78
2022/04/09 02:52:58;;;;;;;0.50;0.50;;;;;;;;;;4977426;28;20042;-78
2022/04/09 02:55:26;;;;;;;1.35;0.32;;;;;;;;;;4990368;28;20273;-80
2022/04/09 02:57:54;;;;;;;0.40;0.40;;;;;;;;;;4973996;28;20445;-78
2022/04/09 03:00:26;;;;;;;;;;;;;;;;;;4972828;28;20043;-79
2022/04/09 03:03:00;;;;;;;0.40;0.40;;;;;;;;;;4989914;28;19922;-80
2022/04/09 03:05:37;;;;;;;0.30;0.30;;;;;;;;;;4957873;28;20506;-79
2022/04/09 03:08:29;;;;;;;0.30;0.30;;;;;;;;;;4946839;28;20050;-79
2022/04/09 03:10:56;;;;;;;0.40;0.40;;;;;;;;;;4977859;28;20046;-78
2022/04/09 03:13:24;;;;;;;0.40;0.40;;;;;;;;;;4957323;28;20110;-77
2022/04/09 03:15:51;;;;;;;0.60;0.60;;;;;;;;;;4971697;28;20043;-78
2022/04/09 03:18:20;;;;;;;0.40;0.40;;;;;;;;;;4955927;28;20054;-79
2022/04/09 03:20:47;;;;;;;0.73;0.60;;;;;;;;;;4959032;28;20054;-78
2022/04/09 03:23:18;;;;;;;0.77;0.77;;;;;;;;;;4987045;28;20085;-79
2022/04/09 03:25:50;;;;;;;0.80;0.80;;;;;;;;;;4970326;28;20141;-79
2022/04/09 03:28:21;;;;;;;0.80;0.80;;;;;;;;;;4973741;28;20073;-78
2022/04/09 03:30:49;;;;;;;0.70;0.70;;;;;;;;;;4991114;28;20064;-79
2022/04/09 03:33:18;;;;;;;0.60;0.60;;;;;;;;;;4991147;28;20042;-77
2022/04/09 03:35:48;;;;;;;0.57;0.57;;;;;;;;;;4972417;28;20050;-80
2022/04/09 03:38:18;;;;;;;0.47;0.47;;;;;;;;;;4989478;28;20046;-78
2022/04/09 03:40:53;;;;;;;0.60;0.60;;;;;;;;;;4989312;28;20047;-79
2022/04/09 03:43:26;;;;;;;0.80;0.80;;;;;;;;;;4955996;28;20554;-76
2022/04/09 03:45:54;;;;;;;0.80;0.80;;;;;;;;;;4975674;28;20046;-78
2022/04/09 03:48:21;;;;;;;0.90;0.90;;;;;;;;;;4989548;28;20069;-80
2022/04/09 03:50:49;;;;;;;1.00;0.90;;;;;;;;;;4972407;28;20046;-78
2022/04/09 03:53:20;;;;;;;0.90;0.90;;;;;;;;;;4972705;28;20101;-80
2022/04/09 03:55:52;;;;;;;1.30;0.80;;;;;;;;;;4973665;28;20401;-76
2022/04/09 03:58:20;;;;;;;0.80;0.80;;;;;;;;;;4972730;28;20050;-80
2022/04/09 04:00:49;;;;;;;0.65;0.65;;;;;;;;;;4973509;28;20068;-79
2022/04/09 04:03:19;;;;;;;0.75;0.75;;;;;;;;;;4974011;28;20046;-80
2022/04/09 04:05:48;;;;;;;0.80;0.80;;;;;;;;;;4990154;28;20038;-79
2022/04/09 04:08:39;;;;;;;0.80;0.80;;;;;;;;;;4970410;28;20054;-77
2022/04/09 04:11:12;;;;;;;0.80;0.80;;;;;;;;;;4989546;28;20042;-78
2022/04/09 04:13:39;;;;;;;0.90;0.90;;;;;;;;;;4973330;28;20502;-78
2022/04/09 04:16:10;;;;;;;0.70;0.70;;;;;;;;;;4989170;28;20085;-79
2022/04/09 04:18:41;;;;;;;0.90;0.90;;;;;;;;;;4989474;28;20125;-80
2022/04/09 04:21:09;;;;;;;0.65;0.65;;;;;;;;;;4989652;28;20138;-79
2022/04/09 04:23:38;;;;;;;0.55;0.55;;;;;;;;;;4989473;28;20505;-79
2022/04/09 04:26:13;;;;;;;0.68;0.68;;;;;;;;;;4979163;28;20058;-77
2022/04/09 04:28:41;;;;;;;0.68;0.50;;;;;;;;;;4959197;28;20058;-80
2022/04/09 04:31:10;;;;;;;0.17;0.17;;;;;;;;;;4992609;28;20106;-80
2022/04/09 04:33:38;;;;;;;0.10;0.10;;;;;;;;;;4992057;28;20046;-80
2022/04/09 04:36:06;;;;;;;0.20;0.20;;;;;;;;;;4974769;28;20137;-79
2022/04/09 04:38:38;;;;;;;0.20;0.20;;;;;;;;;;4976616;28;20159;-79
2022/04/09 04:41:06;;;;;;;0.80;0.17;;;;;;;;;;4991926;28;20482;-79
2022/04/09 04:43:35;;;;;;;0.43;0.20;;;;;;;;;;4983746;28;20470;-76
2022/04/09 04:46:05;;;;;;;0.20;0.20;;;;;;;;;;4993255;28;20436;-76
2022/04/09 04:48:34;;;;;;;0.32;0.20;;;;;;;;;;5009992;28;20092;-79
2022/04/09 04:51:04;;;;;;;0.20;0.20;;;;;;;;;;4999998;28;20046;-76
2022/04/09 04:53:34;;;;;;;0.20;0.20;;;;;;;;;;4976040;28;20073;-77
2022/04/09 04:56:02;;;;;;;0.40;0.40;;;;;;;;;;4976701;28;20042;-79
2022/04/09 04:58:45;;;;;;;0.20;0.20;;;;;;;;;;4960057;28;20054;-78
2022/04/09 05:01:12;;;;;;;0.30;0.30;;;;;;;;;;4993196;28;20054;-77
2022/04/09 05:03:44;;;;;;;;;;;;;;;;;;4972992;28;20051;-79
2022/04/09 05:06:20;;;;;;;0.32;0.30;;;;;;;;;;4984860;28;19958;-76
2022/04/09 05:08:49;;;;;;;0.30;0.30;;;;;;;;;;4991571;28;20502;-79
2022/04/09 05:11:25;;;;;;;0.40;0.40;;;;;;;;;;4991234;28;20119;-77
2022/04/09 05:13:53;;;;;;;0.40;0.40;;;;;;;;;;4959003;28;20056;-77
2022/04/09 05:16:27;;;;;;;0.40;0.40;;;;;;;;;;4975589;28;20043;-77
2022/04/09 05:19:01;;;;;;;0.50;0.50;;;;;;;;;;4973083;28;20039;-79
2022/04/09 05:21:29;;;;;;;0.98;0.50;;;;;;;;;;4964408;28;20342;-78
2022/04/09 05:23:58;;;;;;;0.43;0.43;;;;;;;;;;4955752;28;20144;-79
2022/04/09 05:26:25;;;;;;;0.60;0.60;;;;;;;;;;4987884;28;20093;-79
2022/04/09 05:28:54;;;;;;;0.50;0.50;;;;;;;;;;4971937;28;20455;-78
2022/04/09 05:31:27;;;;;;;0.60;0.60;;;;;;;;;;4998043;28;20082;-78
2022/04/09 05:33:56;;;;;;;0.80;0.80;;;;;;;;;;4955360;28;20054;-77
2022/04/09 05:36:24;;;;;;;1.00;0.88;;;;;;;;;;4971485;28;20053;-79
2022/04/09 05:38:56;;;;;;;0.60;0.60;;;;;;;;;;4972701;28;20042;-76
2022/04/09 05:41:23;;;;;;;0.80;0.80;;;;;;;;;;4973423;28;20129;-77
2022/04/09 05:43:53;;;;;;;0.80;0.80;;;;;;;;;;4973329;28;20050;-79
2022/04/09 05:46:23;;;;;;;0.90;0.90;;;;;;;;;;4990228;28;20502;-78
2022/04/09 05:48:51;;;;;;;0.63;0.63;;;;;;;;;;4958916;28;20058;-79
2022/04/09 05:51:19;;;;;;;1.00;1.00;;;;;;;;;;4990440;28;20050;-78
2022/04/09 05:54:14;;;;;;;0.82;0.82;;;;;;;;;;4965947;28;20058;-78
2022/04/09 05:56:44;;;;;;;1.10;1.10;;;;;;;;;;4989348;28;20042;-79
2022/04/09 05:59:12;;;;;;;1.17;1.08;;;;;;;;;;4989606;28;20042;-79
2022/04/09 06:01:50;;;;;;;3.92;1.15;;;;;;;;;;4954949;28;20058;-78
2022/04/09 06:04:20;;;;;;;0.90;0.90;;;;;;;;;;4986834;28;20042;-78
2022/04/09 06:06:50;;;;;;;1.17;1.10;;;;;;;;;;4969527;28;20061;-77
2022/04/09 06:09:21;;;;;;;1.35;1.25;;;;;;;;;;4971368;28;20061;-77
2022/04/09 06:11:52;;;;;;;1.05;1.05;;;;;;;;;;4977653;28;20414;-77
2022/04/09 06:14:24;;;;;;;;;;;;;;;;;;4954487;28;20050;-77
2022/04/09 06:16:52;;;;;;;1.70;1.60;;;;;;;;;;4969535;28;20016;-77
2022/04/09 06:19:20;;;;;;;2.30;2.10;;;;;;;;;;4987280;28;20133;-77
2022/04/09 06:21:47;;;;;;;1.90;1.80;;;;;;;;;;4969433;28;20061;-78
2022/04/09 06:24:19;;;;;;;2.72;2.53;;;;;;;;;;4969111;28;20096;-77
2022/04/09 06:26:47;;;;;;;2.03;1.83;;;;;;;;;;4972653;28;20050;-78
2022/04/09 06:29:14;;;;;;;7.88;3.20;;;;;;;;;;5003759;28;20050;-78
2022/04/09 06:31:47;;;;;;;2.80;2.50;;;;;;;;;;4969667;28;20042;-77
2022/04/09 06:34:16;;;;;;;2.92;2.72;;;;;;;;;;4985308;28;20093;-77
2022/04/09 06:36:44;;;;;;;2.53;2.40;;;;;;;;;;4953628;28;20141;-78
2022/04/09 06:39:13;;;;;;;2.90;2.70;;;;;;;;;;4969802;28;20780;-77
2022/04/09 06:41:42;;;;;;;3.33;3.03;;;;;;;;;;4969850;28;20589;-78
2022/04/09 06:44:14;;;;;;;3.30;3.10;;;;;;;;;;4969978;28;20195;-77
2022/04/09 06:46:56;;;;;;;5.20;3.75;;;;;;;;;;4986508;28;20382;-78
2022/04/09 06:49:29;;;;;;;4.15;3.85;;;;;;;;;;4985667;28;20046;-78
2022/04/09 06:52:16;;;;;;;4.05;3.67;;;;;;;;;;4969129;28;20038;-78
2022/04/09 06:55:09;;;;;;;3.57;3.33;;;;;;;;;;4970040;28;20081;-78
2022/04/09 06:57:41;;;;;;;4.22;3.92;;;;;;;;;;4950845;28;20801;-78
2022/04/09 07:00:12;;;;;;;4.80;4.30;;;;;;;;;;4966173;28;20042;-78
2022/04/09 07:02:40;;;;;;;5.25;4.10;;;;;;;;;;4986757;28;20047;-78
2022/04/09 07:05:08;;;;;;;4.50;4.10;;;;;;;;;;4970233;28;20046;-79
2022/04/09 07:07:35;;;;;;;5.22;4.80;;;;;;;;;;4970745;28;20054;-79
2022/04/09 07:10:04;;;;;;;5.18;4.65;;;;;;;;;;4988010;28;20050;-78
2022/04/09 07:12:32;;;;;;;6.25;5.07;;;;;;;;;;4985415;28;20053;-78
2022/04/09 07:14:59;;;;;;;5.63;4.63;;;;;;;;;;4984728;28;20054;-79
2022/04/09 07:17:29;;;;;;;5.05;4.55;;;;;;;;;;4984292;28;20050;-78
2022/04/09 07:20:00;;;;;;;5.57;3.88;;;;;;;;;;4985542;28;20406;-78
2022/04/09 07:22:28;;;;;;;5.78;5.22;;;;;;;;;;4984937;28;20550;-78
2022/04/09 07:24:58;;;;;;;6.15;5.55;;;;;;;;;;4985311;28;20046;-77
2022/04/09 07:27:36;;;;;;;5.32;4.85;;;;;;;;;;4983960;28;20662;-78
2022/04/09 07:30:04;;;;;;;6.57;5.97;;;;;;;;;;4985122;28;20049;-78
2022/04/09 07:32:31;;;;;;;5.72;5.22;;;;;;;;;;4984052;28;20035;-78
2022/04/09 07:34:59;;;;;;;5.60;5.18;;;;;;;;;;4982994;28;20068;-78
2022/04/09 07:37:26;;;;;;;7.03;6.15;;;;;;;;;;4984763;28;20042;-78
2022/04/09 07:39:54;;;;;;;8.65;6.65;;;;;;;;;;4985745;28;20038;-78
2022/04/09 07:42:21;;;;;;;7.35;6.45;;;;;;;;;;4981968;28;20047;-79
2022/04/09 07:44:49;;;;;;;7.30;6.60;;;;;;;;;;4979334;28;20057;-79
2022/04/09 07:47:18;;;;;;;6.40;5.35;;;;;;;;;;4983358;28;20174;-79
2022/04/09 07:49:49;;;;;;;5.88;5.45;;;;;;;;;;4966709;28;20058;-78
2022/04/09 07:52:16;;;;;;;5.63;5.10;;;;;;;;;;4984894;28;20126;-78
2022/04/09 07:54:44;;;;;;;5.82;5.32;;;;;;;;;;4983718;28;20517;-78
2022/04/09 07:57:11;;;;;;;5.75;5.10;;;;;;;;;;4966976;28;20117;-78
2022/04/09 07:59:38;;;;;;;5.45;5.05;;;;;;;;;;4984694;28;20042;-78
2022/04/09 08:02:06;;;;;;;5.40;4.90;;;;;;;;;;4987497;28;20125;-78
2022/04/09 08:04:33;;;;;;;5.70;4.90;;;;;;;;;;4991869;28;20054;-78
2022/04/09 08:07:01;;;;;;;4.43;4.03;;;;;;;;;;4986408;28;20133;-79
2022/04/09 08:09:28;;;;;;;5.45;4.85;;;;;;;;;;4954803;28;20057;-78
2022/04/09 08:11:55;;;;;;;4.75;4.35;;;;;;;;;;4987618;28;20447;-78
2022/04/09 08:14:23;;;;;;;5.28;4.63;;;;;;;;;;4968380;28;20039;-78
2022/04/09 08:16:50;;;;;;;5.50;4.95;;;;;;;;;;4981078;28;20080;-79
2022/04/09 08:19:18;;;;;;;6.70;4.90;;;;;;;;;;4987953;28;20413;-78
2022/04/09 08:21:45;;;;;;;6.53;4.60;;;;;;;;;;4988836;28;20411;-79
2022/04/09 08:24:13;;;;;;;4.03;3.67;;;;;;;;;;4988468;28;20031;-79
2022/04/09 08:26:40;;;;;;;4.40;3.90;;;;;;;;;;4995965;28;20045;-78
2022/04/09 08:29:09;;;;;;;4.90;3.88;;;;;;;;;;4985644;28;20490;-78
2022/04/09 08:31:37;;;;;;;3.70;3.40;;;;;;;;;;4971078;28;20043;-78
2022/04/09 08:34:07;;;;;;;4.75;3.60;;;;;;;;;;4988532;28;20046;-78
2022/04/09 08:36:35;;;;;;;4.18;3.78;;;;;;;;;;4987570;28;20042;-79
2022/04/09 08:39:02;;;;;;;3.38;3.15;;;;;;;;;;4985277;28;20042;-78
2022/04/09 08:41:31;;;;;;;3.70;3.40;;;;;;;;;;4985936;28;20130;-79
2022/04/09 08:43:58;;;;;;;3.15;2.95;;;;;;;;;;4968594;28;20054;-79
2022/04/09 08:46:48;;;;;;;4.90;3.20;;;;;;;;;;4962704;28;20063;-79
2022/04/09 08:49:21;;;;;;;3.10;2.80;;;;;;;;;;4985660;28;20490;-78
2022/04/09 08:51:50;;;;;;;3.90;2.63;;;;;;;;;;4989730;28;20110;-79
2022/04/09 08:54:19;;;;;;;3.38;2.72;;;;;;;;;;4990880;28;20071;-79
2022/04/09 08:56:47;;;;;;;5.38;3.17;;;;;;;;;;4988937;28;20072;-79
2022/04/09 08:59:14;;;;;;;4.72;3.20;;;;;;;;;;4982137;28;20046;-79
2022/04/09 09:01:42;;;;;;;3.75;2.97;;;;;;;;;;4981888;28;20050;-78
2022/04/09 09:04:10;;;;;;;3.17;2.63;;;;;;;;;;4989766;28;20105;-78
2022/04/09 09:06:44;;;;;;;2.47;2.17;;;;;;;;;;4984134;28;20402;-78
2022/04/09 09:09:32;;;;;;;4.70;3.15;;;;;;;;;;4972442;28;20054;-79
2022/04/09 09:12:02;;;;;;;4.13;3.10;;;;;;;;;;4982330;28;20042;-80
2022/04/09 09:14:30;;;;;;;2.58;2.40;;;;;;;;;;4972481;28;20038;-79
2022/04/09 09:16:58;;;;;;;2.35;2.13;;;;;;;;;;4961396;28;20415;-78
2022/04/09 09:19:41;;;;;;;3.42;2.28;;;;;;;;;;4960100;28;20053;-79
2022/04/09 09:22:09;;;;;;;2.22;2.03;;;;;;;;;;4977285;28;20078;-78
2022/04/09 09:24:37;;;;;;;3.28;2.30;;;;;;;;;;4978664;28;20054;-79
2022/04/09 09:27:05;;;;;;;3.05;2.20;;;;;;;;;;4975307;28;20070;-78
2022/04/09 09:29:33;;;;;;;4.05;2.40;;;;;;;;;;4957351;28;20104;-78
2022/04/09 09:32:02;;;;;;;2.38;2.17;;;;;;;;;;4956765;28;20512;-79
2022/04/09 09:34:29;;;;;;;2.60;2.20;;;;;;;;;;4974196;28;20061;-79
2022/04/09 09:36:57;;;;;;;2.42;2.22;;;;;;;;;;4957007;28;20177;-79
2022/04/09 09:39:25;;;;;;;3.33;2.40;;;;;;;;;;4976639;28;20073;-80
2022/04/09 09:41:57;;;;;;;3.75;2.60;;;;;;;;;;4976604;28;20038;-79
2022/04/09 09:44:25;;;;;;;4.43;2.78;;;;;;;;;;4960912;28;20058;-78
2022/04/09 09:47:04;;;;;;;3.03;2.10;;;;;;;;;;4973392;28;20046;-79
2022/04/09 09:49:36;;;;;;;2.13;1.70;;;;;;;;;;4973972;28;20100;-79
2022/04/09 09:52:06;;;;;;;2.20;2.03;;;;;;;;;;4975343;28;20549;-79
2022/04/09 09:54:33;;;;;;;2.60;2.40;;;;;;;;;;4978689;28;20532;-78
2022/04/09 09:57:01;;;;;;;2.97;2.10;;;;;;;;;;4972649;28;20218;-78
2022/04/09 09:59:30;;;;;;;2.38;2.20;;;;;;;;;;4975387;28;20454;-78
2022/04/09 10:01:59;;;;;;;4.15;2.45;;;;;;;;;;4971925;28;20141;-79
2022/04/09 10:04:46;;;;;;;3.47;2.05;;;;;;;;;;4970009;28;20038;-78
2022/04/09 10:07:15;;;;;;;5.95;1.88;;;;;;;;;;4972206;28;20061;-79
2022/04/09 10:09:43;;;;;;;2.90;1.92;;;;;;;;;;4974578;28;20042;-79
2022/04/09 10:12:17;;;;;;;3.05;1.98;;;;;;;;;;4978572;28;20045;-78
2022/04/09 10:14:55;;;;;;;4.05;1.83;;;;;;;;;;4976348;28;20597;-78
2022/04/09 10:17:23;;;;;;;3.00;1.63;;;;;;;;;;4975675;28;20161;-78
2022/04/09 10:19:54;;;;;;;3.15;1.77;;;;;;;;;;4978847;28;20042;-79
2022/04/09 10:22:27;;;;;;;3.88;1.85;;;;;;;;;;4976176;28;20038;-78
2022/04/09 10:24:55;;;;;;;7.15;2.42;;;;;;;;;;4959818;28;20034;-78
2022/04/09 10:27:48;;;;;;;2.67;1.80;;;;;;;;;;4975583;28;20117;-78
2022/04/09 10:30:19;;;;;;;1.50;1.40;;;;;;;;;;4973104;28;20062;-80
2022/04/09 10:32:48;;;;;;;4.63;2.20;;;;;;;;;;4975451;28;20074;-78
2022/04/09 10:35:26;;;;;;;2.55;2.08;;;;;;;;;;4973103;28;20042;-79
2022/04/09 10:38:15;;;;;;;1.77;1.67;;;;;;;;;;4958388;28;20133;-79
2022/04/09 10:40:45;;;;;;;1.77;1.67;;;;;;;;;;4959206;28;20035;-78
2022/04/09 10:43:25;;;;;;;2.75;1.55;;;;;;;;;;4976764;28;20542;-78
2022/04/09 10:46:02;;;;;;;1.75;1.60;;;;;;;;;;4974854;28;20078;-80
2022/04/09 10:48:30;;;;;;;2.05;1.60;;;;;;;;;;4975784;28;20069;-78
2022/04/09 10:51:04;;;;;;;2.67;1.75;;;;;;;;;;4974977;28;20058;-79
2022/04/09 10:53:33;;;;;;;1.98;1.70;;;;;;;;;;4975002;28;20506;-78
2022/04/09 10:56:13;;;;;;;1.67;1.50;;;;;;;;;;4974399;28;20141;-78
2022/04/09 10:59:01;;;;;;;2.38;1.70;;;;;;;;;;4974702;28;20321;-79
2022/04/09 11:01:46;;;;;;;1.63;1.52;;;;;;;;;;4955797;28;20054;-78
2022/04/09 11:04:27;;;;;;;4.70;2.33;;;;;;;;;;4972354;28;20050;-78
2022/04/09 11:07:05;;;;;;;1.50;1.40;;;;;;;;;;4975112;28;20109;-77
2022/04/09 11:09:53;;;;;;;1.58;1.42;;;;;;;;;;4973327;28;20090;-79
2022/04/09 11:12:21;;;;;;;1.42;1.33;;;;;;;;;;4957879;28;20167;-80
2022/04/09 11:14:54;;;;;;;2.67;1.77;;;;;;;;;;4976098;28;20042;-77
2022/04/09 11:17:28;;;;;;;5.38;1.45;;;;;;;;;;4974491;28;20038;-79
2022/04/09 11:19:56;;;;;;;3.67;1.60;;;;;;;;;;4973698;28;20148;-78
2022/04/09 11:22:31;;;;;;;1.42;1.33;;;;;;;;;;4974077;28;20069;-77
2022/04/09 11:24:58;;;;;;;2.10;1.60;;;;;;;;;;4972582;28;20052;-77
2022/04/09 11:27:27;;;;;;;4.00;1.70;;;;;;;;;;4973122;28;20494;-78
2022/04/09 11:29:55;;;;;;;3.05;1.17;;;;;;;;;;4970712;28;20477;-78
2022/04/09 11:32:23;;;;;;;1.58;1.27;;;;;;;;;;4961670;28;20039;-78
2022/04/09 11:34:52;;;;;;;2.00;1.20;;;;;;;;;;4977122;28;20168;-77
2022/04/09 11:37:20;;;;;;;11.10;1.70;;;;;;;;;;4976510;28;20345;-78
2022/04/09 11:39:48;;;;;;;1.40;1.30;;;;;;;;;;4959878;28;20794;-78
2022/04/09 11:42:16;;;;;;;2.25;1.23;;;;;;;;;;4975510;28;20115;-79
2022/04/09 11:44:50;;;;;;;1.90;1.42;;;;;;;;;;4977703;28;20137;-78
2022/04/09 11:47:24;;;;;;;1.90;1.27;;;;;;;;;;4965391;28;20531;-78
2022/04/09 11:49:53;;;;;;;1.45;1.30;;;;;;;;;;4978540;28;20050;-78
2022/04/09 11:52:27;;;;;;;2.13;1.45;;;;;;;;;;4978511;28;20050;-78
2022/04/09 11:54:55;;;;;;;1.80;1.30;;;;;;;;;;4970201;28;20117;-78
2022/04/09 11:57:23;;;;;;;3.00;1.70;;;;;;;;;;4974823;28;20250;-77
2022/04/09 11:59:52;;;;;;;2.40;1.33;;;;;;;;;;4976361;28;20128;-79
2022/04/09 12:02:21;;;;;;;2.85;1.85;;;;;;;;;;4981365;28;20061;-79
2022/04/09 12:04:49;;;;;;;2.80;1.73;;;;;;;;;;4978063;28;20042;-78
2022/04/09 12:07:17;;;;;;;5.18;1.80;;;;;;;;;;4964387;28;20074;-78
2022/04/09 12:09:45;;;;;;;2.08;1.80;;;;;;;;;;4971263;28;20430;-80
2022/04/09 12:12:13;;;;;;;2.22;1.80;;;;;;;;;;4964122;28;20454;-79
2022/04/09 12:14:57;;;;;;;2.22;2.03;;;;;;;;;;4975226;28;20257;-79
2022/04/09 12:17:33;;;;;;;4.13;1.65;;;;;;;;;;4976104;28;20112;-78
2022/04/09 12:20:00;;;;;;;2.35;1.73;;;;;;;;;;4979556;28;20141;-80
2022/04/09 12:22:28;;;;;;;8.38;6.63;;;;;;;;;;4970563;28;20043;-78
2022/04/09 12:24:55;;;;;;;2.65;2.00;;;;;;;;;;4960722;28;20453;-78
2022/04/09 12:27:44;;;;;;;2.33;2.13;;;;;;;;;;4980873;28;20463;-79
2022/04/09 12:30:13;;;;;;;4.43;2.10;;;;;;;;;;4975883;28;20124;-77
2022/04/09 12:32:41;;;;;;;3.92;2.55;;;;;;;;;;4979175;28;20047;-78
2022/04/09 12:35:10;;;;;;;2.60;2.40;;;;;;;;;;4973113;28;20043;-78
2022/04/09 12:37:48;;;;;;;3.53;2.40;;;;;;;;;;4974348;28;20089;-78
2022/04/09 12:40:17;;;;;;;2.97;2.28;;;;;;;;;;4975478;28;20058;-78
2022/04/09 12:42:52;;;;;;;2.58;2.00;;;;;;;;;;4957302;28;20051;-80
2022/04/09 12:45:22;;;;;;;2.20;2.00;;;;;;;;;;4980897;28;20049;-73
2022/04/09 12:48:11;;;;;;;11.57;2.67;;;;;;;;;;4997930;28;20052;-75
2022/04/09 12:50:40;;;;;;;3.22;2.05;;;;;;;;;;4998851;28;20123;-77
2022/04/09 12:53:07;;;;;;;5.35;1.83;;;;;;;;;;4998057;28;20046;-75
2022/04/09 12:55:35;;;;;;;2.35;1.98;;;;;;;;;;4998101;28;20066;-73
2022/04/09 12:58:03;;;;;;;2.58;1.58;;;;;;;;;;5002490;28;21407;-75
2022/04/09 13:00:33;;;;;;;1.70;1.60;;;;;;;;;;4998066;28;20125;-74
2022/04/09 13:03:03;;;;;;;1.55;1.30;;;;;;;;;;4998124;28;20045;-76
2022/04/09 13:05:32;;;;;;;3.25;1.80;;;;;;;;;;4996228;28;20418;-77
2022/04/09 13:07:59;;;;;;;3.05;1.52;;;;;;;;;;4997658;28;20046;-75
2022/04/09 13:10:34;;;;;;;2.40;1.60;;;;;;;;;;4997227;28;20046;-75
2022/04/09 13:13:02;;;;;;;1.77;1.60;;;;;;;;;;4997809;28;20120;-75
2022/04/09 13:15:31;;;;;;;5.20;1.73;;;;;;;;;;4996852;28;20056;-78
2022/04/09 13:17:58;;;;;;;2.83;1.40;;;;;;;;;;4997880;28;20132;-77
2022/04/09 13:20:33;;;;;;;3.05;2.22;;;;;;;;;;4996844;28;20053;-75
2022/04/09 13:23:01;;;;;;;1.63;1.52;;;;;;;;;;4994628;28;20037;-74
2022/04/09 13:25:57;;;;;;;2.15;1.25;;;;;;;;;;4912657;29;20144;-71
2022/04/09 13:28:28;;;;;;;4.75;1.55;;;;;;;;;;4918596;29;20775;-76
2022/04/09 13:30:55;;;;;;;2.05;1.00;;;;;;;;;;4919006;29;20183;-75
2022/04/09 13:33:23;;;;;;;1.10;1.05;;;;;;;;;;4917579;29;20528;-75
2022/04/09 13:35:50;;;;;;;2.08;1.38;;;;;;;;;;4933399;28;20497;-75
2022/04/09 13:38:19;;;;;;;3.08;1.17;;;;;;;;;;4993766;28;20042;-73
2022/04/09 13:40:46;;;;;;;2.30;1.30;;;;;;;;;;4991521;28;20141;-77
2022/04/09 13:43:15;;;;;;;3.72;1.45;;;;;;;;;;4992422;28;20042;-76
2022/04/09 13:45:43;;;;;;;4.18;1.50;;;;;;;;;;4992475;28;20647;-73
2022/04/09 13:48:10;;;;;;;2.17;1.30;;;;;;;;;;4993246;28;20125;-76
2022/04/09 13:50:38;;;;;;;2.28;1.40;;;;;;;;;;4992241;28;20417;-76
2022/04/09 13:53:06;;;;;;;1.40;1.20;;;;;;;;;;4993442;28;20041;-74
2022/04/09 13:55:33;;;;;;;2.65;1.25;;;;;;;;;;4994268;28;20054;-76
2022/04/09 13:58:01;;;;;;;3.00;1.27;;;;;;;;;;4990107;28;20603;-76
2022/04/09 14:00:29;;;;;;;1.98;1.15;;;;;;;;;;4989102;28;20074;-76
2022/04/09 14:02:56;;;;;;;6.57;1.90;;;;;;;;;;4992904;28;20053;-76
2022/04/09 14:05:24;;;;;;;1.55;0.95;;;;;;;;;;4991764;28;20125;-75
2022/04/09 14:08:11;;;;;;;4.13;1.10;;;;;;;;;;4994670;28;20112;-76
2022/04/09 14:10:40;;;;;;;1.50;1.00;;;;;;;;;;4991837;28;20050;-74
2022/04/09 14:13:07;;;;;;;2.38;1.30;;;;;;;;;;4997588;28;20129;-77
2022/04/09 14:15:58;;;;;;;1.90;1.40;;;;;;;;;;4982282;28;20148;-76
2022/04/09 14:18:25;;;;;;;3.50;1.55;;;;;;;;;;4990443;28;20045;-78
2022/04/09 14:20:52;;;;;;;1.55;1.27;;;;;;;;;;4991682;28;20137;-77
2022/04/09 14:23:23;;;;;;;2.03;1.40;;;;;;;;;;4995041;28;20062;-77
2022/04/09 14:25:51;;;;;;;2.40;1.58;;;;;;;;;;4994918;28;20133;-75
2022/04/09 14:28:19;;;;;;;4.72;2.00;;;;;;;;;;4996160;28;20580;-75
2022/04/09 14:30:47;;;;;;;3.22;1.40;;;;;;;;;;4996929;28;20042;-74
2022/04/09 14:33:15;;;;;;;1.42;1.33;;;;;;;;;;4996483;28;20050;-77
2022/04/09 14:35:42;;;;;;;3.05;1.60;;;;;;;;;;4997059;28;21195;-78
2022/04/09 14:38:10;;;;;;;2.65;1.35;;;;;;;;;;4996567;28;20046;-77
2022/04/09 14:40:37;;;;;;;1.42;1.20;;;;;;;;;;4994767;28;20057;-74
2022/04/09 14:43:05;;;;;;;1.25;1.02;;;;;;;;;;4990300;28;21751;-77
2022/04/09 14:45:33;;;;;;;1.42;1.10;;;;;;;;;;4991085;28;20042;-74
2022/04/09 14:48:00;;;;;;;2.55;1.25;;;;;;;;;;4994457;28;20056;-76
2022/04/09 14:50:27;;;;;;;2.08;1.35;;;;;;;;;;4991673;28;20138;-77
2022/04/09 14:52:55;;;;;;;1.58;1.00;;;;;;;;;;4992174;28;20203;-75
2022/04/09 14:55:22;;;;;;;2.50;1.20;;;;;;;;;;4994208;28;20128;-75
2022/04/09 14:57:50;;;;;;;1.25;1.00;;;;;;;;;;4993209;28;20423;-78
2022/04/09 15:00:17;;;;;;;3.70;1.70;;;;;;;;;;4987707;28;20531;-74
2022/04/09 15:02:45;;;;;;;1.27;1.10;;;;;;;;;;4987165;28;20393;-74
2022/04/09 15:05:17;;;;;;;1.98;1.13;;;;;;;;;;4993612;28;20038;-73